createdAt,value
2023-12-14T00:02:42.955Z,5.73
2023-12-14T00:05:46.716Z,6.90
2023-12-14T00:08:50.498Z,7.37
2023-12-14T00:11:55.616Z,6.87
2023-12-14T00:15:00.799Z,6.83
2023-12-14T00:18:04.656Z,5.57
2023-12-14T00:21:09.278Z,6.53
2023-12-14T00:24:13.046Z,8.83
2023-12-14T00:27:18.254Z,5.43
2023-12-14T00:30:22.167Z,7.13
2023-12-14T00:33:26.160Z,7.63
2023-12-14T00:36:30.041Z,6.67
2023-12-14T00:39:35.394Z,4.80
2023-12-14T00:42:40.564Z,5.73
2023-12-14T00:45:44.497Z,5.37
2023-12-14T00:48:48.311Z,7.20
2023-12-14T00:51:52.224Z,5.67
2023-12-14T00:54:56.038Z,5.60
2023-12-14T00:58:01.233Z,6.37
2023-12-14T01:01:05.956Z,5.53
2023-12-14T01:04:09.874Z,4.97
2023-12-14T01:07:13.576Z,6.67
2023-12-14T01:10:17.476Z,4.27
2023-12-14T01:13:22.613Z,3.90
2023-12-14T01:16:29.158Z,3.10
2023-12-14T01:19:32.912Z,4.93
2023-12-14T01:22:37.184Z,3.17
2023-12-14T01:25:41.138Z,3.60
2023-12-14T01:28:46.806Z,5.60
2023-12-14T01:31:50.726Z,3.30
2023-12-14T01:34:54.545Z,3.37
2023-12-14T01:37:58.388Z,3.20
2023-12-14T01:41:02.291Z,4.50
2023-12-14T01:44:07.582Z,5.53
2023-12-14T01:47:11.518Z,3.60
2023-12-14T01:50:15.349Z,4.03
2023-12-14T01:53:19.249Z,2.93
2023-12-14T01:56:22.976Z,5.23
2023-12-14T01:59:28.959Z,2.63
2023-12-14T02:02:33.009Z,4.67
2023-12-14T02:05:37.214Z,5.63
2023-12-14T02:08:41.058Z,3.47
2023-12-14T02:11:45.017Z,3.47
2023-12-14T02:14:51.516Z,2.57
2023-12-14T02:17:55.495Z,2.40
2023-12-14T02:20:59.233Z,2.87
2023-12-14T02:24:04.759Z,4.77
2023-12-14T02:27:08.503Z,2.50
2023-12-14T02:30:14.036Z,3.87
2023-12-14T02:33:17.862Z,3.67
2023-12-14T02:36:21.631Z,3.93
2023-12-14T02:39:26.811Z,4.00
2023-12-14T02:42:30.626Z,5.17
2023-12-14T02:45:34.463Z,4.37
2023-12-14T02:48:38.310Z,5.43
2023-12-14T02:51:42.168Z,5.37
2023-12-14T02:54:47.371Z,5.47
2023-12-14T02:57:51.235Z,7.67
2023-12-14T03:00:55.072Z,4.67
2023-12-14T03:03:58.929Z,5.13
2023-12-14T03:07:04.138Z,3.37
2023-12-14T03:10:11.151Z,4.07
2023-12-14T03:13:14.966Z,5.60
2023-12-14T03:16:18.956Z,4.83
2023-12-14T03:19:24.018Z,4.33
2023-12-14T03:22:27.773Z,4.93
2023-12-14T03:25:32.985Z,4.20
2023-12-14T03:28:36.770Z,6.70
2023-12-14T03:31:41.165Z,4.50
2023-12-14T03:34:44.928Z,4.67
2023-12-14T03:37:48.747Z,2.53
2023-12-14T03:40:53.917Z,3.30
2023-12-14T03:43:57.850Z,5.03
2023-12-14T03:47:01.732Z,3.53
2023-12-14T03:50:06.812Z,3.97
2023-12-14T03:53:10.654Z,6.13
2023-12-14T03:56:16.007Z,4.20
2023-12-14T03:59:19.761Z,3.90
2023-12-14T04:02:23.715Z,4.27
2023-12-14T04:05:27.625Z,3.20
2023-12-14T04:08:31.600Z,7.03
2023-12-14T04:11:36.980Z,5.23
2023-12-14T04:14:40.689Z,3.13
2023-12-14T04:17:44.465Z,3.53
2023-12-14T04:20:48.252Z,4.00
2023-12-14T04:23:52.011Z,5.93
2023-12-14T04:26:57.111Z,3.03
2023-12-14T04:30:00.874Z,3.47
2023-12-14T04:33:04.859Z,6.67
2023-12-14T04:36:09.576Z,2.10
2023-12-14T04:39:13.524Z,4.50
2023-12-14T04:42:18.863Z,9.27
2023-12-14T04:45:22.672Z,4.47
2023-12-14T04:48:26.514Z,3.13
2023-12-14T04:51:30.333Z,3.17
2023-12-14T04:54:34.210Z,4.70
2023-12-14T04:57:39.463Z,5.30
2023-12-14T05:00:43.756Z,4.13
2023-12-14T05:03:47.563Z,3.63
2023-12-14T05:06:51.326Z,5.33
2023-12-14T05:09:55.199Z,3.97
2023-12-14T05:13:00.338Z,4.13
2023-12-14T05:16:04.376Z,5.40
2023-12-14T05:19:08.281Z,7.40
2023-12-14T05:22:12.615Z,4.70
2023-12-14T05:25:16.974Z,5.20
2023-12-14T05:28:22.070Z,3.90
2023-12-14T05:31:26.166Z,5.97
2023-12-14T05:34:29.957Z,6.00
2023-12-14T05:37:34.435Z,6.40
2023-12-14T05:40:38.226Z,7.03
2023-12-14T05:43:43.828Z,6.13
2023-12-14T05:46:47.779Z,5.10
2023-12-14T05:49:51.579Z,5.60
2023-12-14T05:52:55.553Z,7.43
2023-12-14T05:56:00.512Z,4.83
2023-12-14T05:59:05.865Z,4.63
2023-12-14T06:02:09.808Z,6.43
2023-12-14T06:05:14.755Z,5.07
2023-12-14T06:08:18.703Z,4.07
2023-12-14T06:11:22.754Z,6.50
2023-12-14T06:14:28.310Z,3.53
2023-12-14T06:17:33.206Z,5.00
2023-12-14T06:20:36.954Z,7.30
2023-12-14T06:23:40.801Z,5.90
2023-12-14T06:26:45.324Z,7.40
2023-12-14T06:29:50.489Z,4.97
2023-12-14T06:32:54.307Z,5.30
2023-12-14T06:35:58.149Z,4.07
2023-12-14T06:39:04.111Z,4.43
2023-12-14T06:42:08.170Z,6.17
2023-12-14T06:45:13.751Z,5.27
2023-12-14T06:48:17.623Z,6.20
2023-12-14T06:51:21.469Z,4.00
2023-12-14T06:54:25.347Z,5.27
2023-12-14T06:57:30.230Z,4.40
2023-12-14T07:00:35.809Z,4.50
2023-12-14T07:03:42.183Z,3.17
2023-12-14T07:06:52.744Z,2.73
2023-12-14T07:09:56.488Z,5.10
2023-12-14T07:13:00.543Z,3.07
2023-12-14T07:16:09.294Z,4.10
2023-12-14T07:19:13.158Z,3.17
2023-12-14T07:22:16.930Z,3.30
2023-12-14T07:25:20.741Z,3.67
2023-12-14T07:28:24.895Z,5.73
2023-12-14T07:31:30.359Z,4.20
2023-12-14T07:34:34.257Z,7.80
2023-12-14T07:37:38.073Z,6.03
2023-12-14T07:40:42.394Z,4.93
2023-12-14T07:43:46.194Z,11.60
2023-12-14T07:46:51.388Z,6.83
2023-12-14T07:49:55.931Z,7.30
2023-12-14T07:52:59.871Z,9.97
2023-12-14T07:56:04.560Z,6.30
2023-12-14T07:59:08.966Z,8.87
2023-12-14T08:02:14.397Z,8.57
2023-12-14T08:05:18.167Z,7.63
2023-12-14T08:08:21.983Z,11.57
2023-12-14T08:11:25.817Z,8.57
2023-12-14T08:14:29.684Z,9.07
2023-12-14T08:17:34.930Z,10.03
2023-12-14T08:20:38.713Z,7.87
2023-12-14T08:23:42.469Z,14.73
2023-12-14T08:26:46.782Z,12.57
2023-12-14T08:29:50.530Z,9.47
2023-12-14T08:32:55.718Z,13.20
2023-12-14T08:35:59.909Z,6.00
2023-12-14T08:39:04.069Z,11.80
2023-12-14T08:42:07.871Z,7.87
2023-12-14T08:45:26.134Z,10.17
2023-12-14T08:48:31.273Z,9.83
2023-12-14T08:51:35.744Z,11.70
2023-12-14T08:54:39.703Z,7.40
2023-12-14T08:57:43.479Z,9.90
2023-12-14T09:00:47.902Z,7.30
2023-12-14T09:03:53.288Z,9.37
2023-12-14T09:06:58.099Z,12.57
2023-12-14T09:10:04.440Z,8.77
2023-12-14T09:13:10.837Z,9.50
2023-12-14T09:16:15.074Z,14.87
2023-12-14T09:19:20.711Z,7.83
2023-12-14T09:22:24.491Z,7.60
2023-12-14T09:25:28.284Z,7.27
2023-12-14T09:28:32.156Z,6.07
2023-12-14T09:31:36.420Z,8.23
2023-12-14T09:34:42.173Z,8.07
2023-12-14T09:37:45.929Z,7.77
2023-12-14T09:40:49.741Z,10.17
2023-12-14T09:43:54.534Z,7.27
2023-12-14T09:47:01.450Z,7.90
2023-12-14T09:50:09.235Z,12.43
2023-12-14T09:53:13.624Z,8.67
2023-12-14T09:56:17.499Z,6.73
2023-12-14T09:59:21.594Z,12.50
2023-12-14T10:02:29.411Z,6.90
2023-12-14T10:05:34.754Z,11.07
2023-12-14T10:08:38.584Z,9.63
2023-12-14T10:11:43.039Z,8.37
2023-12-14T10:14:46.974Z,6.17
2023-12-14T10:17:55.496Z,10.20
2023-12-14T10:21:00.801Z,7.03
2023-12-14T10:24:05.175Z,10.23
2023-12-14T10:27:09.821Z,9.43
2023-12-14T10:30:16.682Z,14.03
2023-12-14T10:33:20.632Z,11.67
2023-12-14T10:36:28.601Z,8.37
2023-12-14T10:39:33.874Z,7.90
2023-12-14T10:42:39.731Z,4.83
2023-12-14T10:45:50.118Z,7.60
2023-12-14T10:48:54.416Z,7.03
2023-12-14T10:52:02.351Z,5.97
2023-12-14T10:55:13.566Z,9.23
2023-12-14T10:58:17.351Z,10.57
2023-12-14T11:01:25.288Z,12.97
2023-12-14T11:04:29.498Z,9.30
2023-12-14T11:07:58.331Z,8.50
2023-12-14T11:11:11.512Z,6.77
2023-12-14T11:14:21.411Z,7.87
2023-12-14T11:17:25.595Z,9.20
2023-12-14T11:20:29.959Z,10.17
2023-12-14T11:23:40.310Z,7.43
2023-12-14T11:26:44.356Z,13.97
2023-12-14T11:29:50.063Z,6.60
2023-12-14T11:32:55.766Z,12.57
2023-12-14T11:35:59.613Z,7.53
2023-12-14T11:39:06.708Z,8.77
2023-12-14T11:42:11.942Z,9.23
2023-12-14T11:45:15.876Z,7.53
2023-12-14T11:48:21.718Z,8.57
2023-12-14T11:51:27.022Z,9.03
2023-12-14T11:54:32.378Z,8.87
2023-12-14T11:57:36.947Z,8.47
2023-12-14T12:00:41.243Z,8.87
2023-12-14T12:03:46.145Z,7.87
2023-12-14T12:06:49.956Z,11.27
2023-12-14T12:09:55.175Z,8.13
2023-12-14T12:13:03.812Z,7.07
2023-12-14T12:16:07.972Z,7.53
2023-12-14T12:19:11.844Z,6.57
2023-12-14T12:22:15.677Z,5.73
2023-12-14T12:25:20.858Z,7.13
2023-12-14T12:28:24.591Z,7.37
2023-12-14T12:31:28.294Z,9.00
2023-12-14T12:34:32.092Z,6.83
2023-12-14T12:37:36.190Z,6.13
2023-12-14T12:40:41.524Z,8.57
2023-12-14T12:43:45.364Z,7.47
2023-12-14T12:46:58.063Z,8.87
2023-12-14T12:50:10.810Z,6.77
2023-12-14T12:53:14.705Z,8.20
2023-12-14T12:56:20.293Z,7.10
2023-12-14T12:59:24.317Z,8.20
2023-12-14T13:02:28.126Z,9.23
2023-12-14T13:05:31.939Z,6.80
2023-12-14T13:08:35.807Z,13.23
2023-12-14T13:11:41.023Z,8.23
2023-12-14T13:14:45.072Z,8.00
2023-12-14T13:17:48.902Z,6.00
2023-12-14T13:20:52.729Z,8.07
2023-12-14T13:23:57.832Z,11.17
2023-12-14T13:27:03.097Z,5.60
2023-12-14T13:30:09.499Z,9.10
2023-12-14T13:33:13.974Z,7.83
2023-12-14T13:36:19.926Z,6.40
2023-12-14T13:39:24.056Z,7.20
2023-12-14T13:42:29.280Z,6.23
2023-12-14T13:45:33.007Z,7.23
2023-12-14T13:48:36.946Z,9.23
2023-12-14T13:51:40.771Z,5.53
2023-12-14T13:54:44.598Z,10.93
2023-12-14T13:57:50.063Z,6.03
2023-12-14T14:00:54.104Z,7.20
2023-12-14T14:03:57.896Z,9.53
2023-12-14T14:07:01.900Z,6.70
2023-12-14T14:10:06.963Z,6.33
2023-12-14T14:13:12.178Z,8.17
2023-12-14T14:16:16.962Z,6.17
2023-12-14T14:19:20.841Z,6.33
2023-12-14T14:22:25.307Z,9.17
2023-12-14T14:25:29.234Z,6.30
2023-12-14T14:28:34.427Z,7.77
2023-12-14T14:31:38.268Z,8.37
2023-12-14T14:34:42.140Z,7.70
2023-12-14T14:37:47.639Z,10.90
2023-12-14T14:40:51.612Z,8.73
2023-12-14T14:43:56.791Z,9.33
2023-12-14T14:47:00.916Z,11.07
2023-12-14T14:50:08.245Z,11.57
2023-12-14T14:53:14.125Z,8.20
2023-12-14T14:56:17.962Z,10.60
2023-12-14T14:59:23.788Z,7.53
2023-12-14T15:02:27.938Z,8.03
2023-12-14T15:05:32.859Z,8.53
2023-12-14T15:08:36.744Z,15.93
2023-12-14T15:11:40.469Z,11.80
2023-12-14T15:14:46.104Z,9.13
2023-12-14T15:17:49.850Z,9.50
2023-12-14T15:20:54.024Z,6.70
2023-12-14T15:23:57.815Z,6.63
2023-12-14T15:27:01.673Z,9.20
2023-12-14T15:30:10.291Z,9.23
2023-12-14T15:33:14.784Z,10.83
2023-12-14T15:36:18.757Z,5.43
2023-12-14T15:39:22.542Z,8.23
2023-12-14T15:42:26.366Z,10.03
2023-12-14T15:45:34.479Z,5.60
2023-12-14T15:48:38.673Z,9.63
2023-12-14T15:51:43.056Z,7.13
2023-12-14T15:54:46.820Z,10.13
2023-12-14T15:57:50.655Z,9.20
2023-12-14T16:00:55.870Z,7.07
2023-12-14T16:03:59.728Z,8.30
2023-12-14T16:07:03.523Z,6.83
2023-12-14T16:10:09.206Z,10.47
2023-12-14T16:13:13.105Z,6.17
2023-12-14T16:16:18.234Z,6.77
2023-12-14T16:19:22.334Z,7.20
2023-12-14T16:22:26.019Z,11.80
2023-12-14T16:25:29.777Z,10.27
2023-12-14T16:28:33.652Z,8.30
2023-12-14T16:31:44.724Z,6.40
2023-12-14T16:34:48.538Z,10.87
2023-12-14T16:37:52.634Z,6.00
2023-12-14T16:40:56.575Z,11.13
2023-12-14T16:44:00.364Z,8.37
2023-12-14T16:47:08.304Z,9.90
2023-12-14T16:50:12.997Z,11.73
2023-12-14T16:53:17.010Z,10.03
2023-12-14T16:56:20.971Z,8.37
2023-12-14T16:59:24.819Z,10.40
2023-12-14T17:02:29.982Z,9.80
2023-12-14T17:05:35.409Z,14.07
2023-12-14T17:08:39.387Z,13.40
2023-12-14T17:11:43.751Z,20.67
2023-12-14T17:14:47.770Z,11.53
2023-12-14T17:17:52.980Z,12.57
2023-12-14T17:20:56.690Z,14.20
2023-12-14T17:24:01.782Z,14.37
2023-12-14T17:27:06.240Z,10.30
2023-12-14T17:30:11.565Z,12.10
2023-12-14T17:33:16.982Z,17.93
2023-12-14T17:36:20.880Z,11.20
2023-12-14T17:39:24.696Z,12.83
2023-12-14T17:42:28.533Z,11.50
2023-12-14T17:45:41.118Z,13.60
2023-12-14T17:48:46.663Z,10.93
2023-12-14T17:51:50.484Z,10.60
2023-12-14T17:54:54.361Z,7.97
2023-12-14T17:57:58.163Z,7.73
2023-12-14T18:01:05.640Z,10.07
2023-12-14T18:04:11.529Z,10.30
2023-12-14T18:07:17.178Z,10.13
2023-12-14T18:10:22.093Z,15.50
2023-12-14T18:13:26.630Z,13.47
2023-12-14T18:16:30.891Z,12.13
2023-12-14T18:19:36.113Z,13.07
2023-12-14T18:22:39.919Z,16.63
2023-12-14T18:25:47.326Z,13.43
2023-12-14T18:28:51.333Z,12.33
2023-12-14T18:31:55.144Z,13.97
2023-12-14T18:35:00.359Z,12.47
2023-12-14T18:38:04.267Z,12.87
2023-12-14T18:41:08.415Z,12.87
2023-12-14T18:44:12.713Z,12.03
2023-12-14T18:47:16.873Z,11.70
2023-12-14T18:50:22.115Z,17.70
2023-12-14T18:53:25.917Z,11.53
2023-12-14T18:56:32.536Z,13.87
2023-12-14T18:59:37.473Z,12.17
2023-12-14T19:02:41.464Z,10.50
2023-12-14T19:05:47.003Z,13.00
2023-12-14T19:08:51.805Z,10.70
2023-12-14T19:11:55.538Z,10.87
2023-12-14T19:14:59.325Z,12.50
2023-12-14T19:18:03.539Z,13.97
2023-12-14T19:21:09.097Z,13.03
2023-12-14T19:24:12.812Z,19.83
2023-12-14T19:27:16.748Z,12.43
2023-12-14T19:30:22.283Z,19.67
2023-12-14T19:33:26.404Z,18.07
2023-12-14T19:36:33.179Z,14.40
2023-12-14T19:39:37.195Z,15.93
2023-12-14T19:42:40.970Z,19.63
2023-12-14T19:45:44.965Z,17.07
2023-12-14T19:48:48.843Z,15.17
2023-12-14T19:51:54.154Z,14.53
2023-12-14T19:54:58.880Z,18.93
2023-12-14T19:58:02.815Z,16.53
2023-12-14T20:01:06.998Z,19.20
2023-12-14T20:04:12.938Z,14.83
2023-12-14T20:07:20.397Z,16.77
2023-12-14T20:10:24.272Z,16.03
2023-12-14T20:13:28.655Z,18.57
2023-12-14T20:16:32.472Z,18.77
2023-12-14T20:19:36.224Z,18.93
2023-12-14T20:22:41.910Z,14.67
2023-12-14T20:25:46.059Z,16.70
2023-12-14T20:28:50.202Z,17.20
2023-12-14T20:31:54.010Z,16.87
2023-12-14T20:34:57.942Z,22.87
2023-12-14T20:38:07.787Z,23.47
2023-12-14T20:41:11.707Z,22.87
2023-12-14T20:44:15.563Z,22.23
2023-12-14T20:47:19.354Z,23.77
2023-12-14T20:50:23.592Z,25.03
2023-12-14T20:53:28.878Z,23.20
2023-12-14T20:56:32.796Z,24.67
2023-12-14T20:59:36.604Z,21.43
2023-12-14T21:02:41.113Z,22.90
2023-12-14T21:05:48.867Z,23.77
2023-12-14T21:08:54.718Z,23.40
2023-12-14T21:11:58.536Z,30.10
2023-12-14T21:15:02.355Z,22.83
2023-12-14T21:18:06.442Z,23.33
2023-12-14T21:21:10.435Z,28.87
2023-12-14T21:24:18.633Z,19.40
2023-12-14T21:27:40.194Z,24.83
2023-12-14T21:30:44.629Z,26.73
2023-12-14T21:33:48.444Z,23.93
2023-12-14T21:36:52.295Z,21.17
2023-12-14T21:39:57.453Z,23.80
2023-12-14T21:43:01.279Z,23.37
2023-12-14T21:46:05.269Z,29.80
2023-12-14T21:49:16.725Z,26.83
2023-12-14T21:52:22.814Z,22.63
2023-12-14T21:55:28.191Z,26.17
2023-12-14T21:58:31.918Z,27.90
2023-12-14T22:01:36.149Z,24.07
2023-12-14T22:04:39.983Z,20.83
2023-12-14T22:07:43.817Z,25.17
2023-12-14T22:10:49.107Z,19.17
2023-12-14T22:13:52.958Z,20.73
2023-12-14T22:16:58.447Z,20.57
2023-12-14T22:20:02.253Z,21.67
2023-12-14T22:23:06.119Z,20.23
2023-12-14T22:26:11.416Z,21.13
2023-12-14T22:29:15.227Z,21.87
2023-12-14T22:32:19.043Z,19.37
2023-12-14T22:35:23.678Z,21.27
2023-12-14T22:38:27.987Z,21.57
2023-12-14T22:41:33.252Z,19.03
2023-12-14T22:44:37.070Z,17.47
2023-12-14T22:47:41.298Z,18.73
2023-12-14T22:50:45.470Z,23.93
2023-12-14T22:53:49.712Z,21.87
2023-12-14T22:56:56.340Z,17.90
2023-12-14T23:00:00.161Z,20.67
2023-12-14T23:03:03.997Z,17.63
2023-12-14T23:06:08.924Z,21.63
2023-12-14T23:09:14.237Z,22.03
2023-12-14T23:12:20.742Z,23.63
2023-12-14T23:15:25.570Z,19.97
2023-12-14T23:18:29.533Z,19.17
2023-12-14T23:21:33.390Z,22.03
2023-12-14T23:24:37.227Z,20.23
2023-12-14T23:27:42.492Z,20.20
2023-12-14T23:30:46.250Z,16.43
2023-12-14T23:33:50.152Z,21.77
2023-12-14T23:36:54.220Z,18.60
2023-12-14T23:39:58.058Z,17.07
2023-12-14T23:43:03.386Z,20.23
2023-12-14T23:46:07.895Z,22.60
2023-12-14T23:49:11.739Z,20.73
2023-12-14T23:52:15.625Z,22.23
2023-12-14T23:55:19.392Z,18.83
2023-12-14T23:58:24.603Z,15.93
